aviador You're here:

NTAA Decoded Metar

Tahiti Papeete in FRENCH POLYNESIA
Report Time2017-12-11 03:30:00
UTC Time2017-12-11 04:04:51
Flight Rules vfr VFR
Wind050° at 09 kt
W.Decomp.*RWY 04: 9.0 kt HW 0.5 kt LCW
W.Rank050° ranks 2
Current wind is below 050° avg. (10.0)
Visibility9999 m
Phenomena:N/A
Clouds:Few 023 Hf
Broken 300 Hf
Expected CloudBase > 2,400 ft AGL from Temp-Dew spread
Ceiling30,000 ft
Temp29°C (ISA +14)
Dew Point23°C (70% RH)
Heat Index32.7°C
QNH1009 hPa
Density Alt2,119 ft
Elevation7 ft
Report Wrong Elevation
Raw Report
METAR NTAA 110330Z 05009KT 9999 FEW023 BKN300 29/23 Q1009 NOSIG=

Extra information for NTAA:More info

Metar Taf Metar & Taf Last 4 Metars F.Rules Stats Wind Profile Meteogram Temp Stats Airport Information Weather charts Add Link Nearby VenuesMetar ALERT Operation Metar Decoded Social comments